Ursina, PA (15485)

12:33 AM EDT on July 31, 2016 (GMT -0400)
Donna's Weather | | Change Station

Elev 2306 ft 39.77 °N, 79.50 °W | Updated 5 seconds ago

Rain
Rain
64.6 °F
Feels Like 64.6 °F
N
0.0
Wind Variable Wind from WNW
Gusts 0.0 mph

Today
High -- | Low -- °F
--% Chance of Precip.
Yesterday
High -- | Low -- °F
Precip. -- in
Pressure 30.10 in
Visibility 10.0 miles
Clouds Mostly Cloudy 7000 ft
Mostly Cloudy 8000 ft
Overcast 9500 ft
Dew Point 61 °F
Humidity 89%
Rainfall 0.00 in
Snow Depth Not available.
6:15 AM 8:31 PM
Waning Crescent, 9% visible
METAR K2G4 310410Z AUTO 23004KT 10SM BKN070 BKN080 OVC095 16/16 A3010 RMK AO1
Pressure 30.10 in
Visibility 10.0 miles
Clouds Mostly Cloudy 7000 ft
Mostly Cloudy 8000 ft
Overcast 9500 ft
Dew Point 61 °F
Humidity 89%
Rainfall 0.00 in
Snow Depth Not available.
6:15 AM 8:31 PM
Waning Crescent, 9% visible
METAR K2G4 310410Z AUTO 23004KT 10SM BKN070 BKN080 OVC095 16/16 A3010 RMK AO1

10-Day Weather Forecast

Almanac

Astronomy

Jul. 31, 2016 Rise Set
Actual Time
Civil Twilight
Nautical Twilight
Astronomical Twilight
Moon
Length of Visible Light
Length of Day
Tomorrow will be .
, % of the Moon is Illuminated

Today's Extremes

State Highs State Lows

Community

WunderPhotos

Upload Photos

1,928,759 photos uploaded!

WunderBlog® & News

Nearby

Air Quality

  Air Quality AQ Index Pollutant
Not available.

Snow Depth

Station Depth Elevation

Earthquake Activity

City Distance Mag. Time & Date
Minimum magnitude displayed is 2.5.

Coastal Water Temperatures

Place Temperature

Stations

Nearby Weather Stations

Station Location Temp. Windchill Dew Point Humidity Wind Precip. Elev Updated Type
                   

Watches & Warnings

There are currently no watches in effect.